Time;durP1;ratioP1;P1;durP2;ratioP2;P2;SDS_P1;SDS_P2;PMS_P1;PMS_P2;Temp;Humidity;BMP_temperature;BMP_pressure;BME280_temperature;BME280_humidity;BME280_pressure;Samples;Min_cycle;Max_cycle;Signal;HPM_P1;HPM_P2
2022/09/07 00:01:44;;;;;;;;;37.00;34.00;;;;;20.99;30.64;99056.66;6163633;28;97501;-53
2022/09/07 00:04:47;;;;;;;;;48.00;41.00;;;;;20.97;30.76;99058.88;6165958;28;98061;-57
2022/09/07 00:07:53;;;;;;;;;36.20;33.60;;;;;20.99;30.83;99058.59;6164876;28;96837;-60
2022/09/07 00:10:58;;;;;;;;;37.80;34.60;;;;;20.98;30.65;99062.44;6165861;28;96616;-57
2022/09/07 00:14:02;;;;;;;;;45.80;39.40;;;;;20.95;31.11;99071.22;6165126;28;97163;-55
2022/09/07 00:17:06;;;;;;;;;51.50;44.00;;;;;20.92;31.01;99052.59;6165256;28;97379;-55
2022/09/07 00:20:12;;;;;;;;;42.80;37.80;;;;;20.93;30.80;99059.72;6164896;28;97296;-53
2022/09/07 00:23:15;;;;;;;;;29.60;29.00;;;;;20.90;30.73;99061.13;6158955;28;97429;-57
2022/09/07 00:26:21;;;;;;;;;44.00;38.20;;;;;20.83;31.05;99063.34;6162526;28;96859;-55
2022/09/07 00:29:25;;;;;;;;;67.83;58.33;;;;;20.70;31.15;99055.78;6164259;28;98018;-58
2022/09/07 00:32:30;;;;;;;;;45.00;39.00;;;;;20.67;31.20;99056.34;6164212;28;97194;-56
2022/09/07 00:35:38;;;;;;;;;53.17;45.17;;;;;20.66;31.19;99055.53;6164457;28;97164;-55
2022/09/07 00:38:42;;;;;;;;;40.50;35.83;;;;;20.63;31.24;99058.00;6162526;28;97485;-55
2022/09/07 00:41:45;;;;;;;;;42.50;36.75;;;;;20.58;31.04;99047.06;6164267;28;96625;-56
2022/09/07 00:45:08;;;;;;;;;44.60;38.80;;;;;20.59;31.40;99063.22;6164262;28;96934;-56
2022/09/07 00:48:18;;;;;;;;;65.50;54.75;;;;;20.53;30.88;99053.38;6164091;28;97537;-56
2022/09/07 00:51:26;;;;;;;;;50.50;42.50;;;;;20.51;31.44;99052.06;6164462;28;98002;-62
2022/09/07 00:54:33;;;;;;;;;57.67;48.00;;;;;20.44;31.02;99054.25;6164034;28;96278;-58
2022/09/07 00:57:40;;;;;;;;;54.33;45.67;;;;;20.38;31.20;99053.47;6163864;28;97250;-60
2022/09/07 01:00:46;;;;;;;;;36.50;33.50;;;;;20.37;31.73;99051.03;6164003;28;97548;-59
2022/09/07 01:03:53;;;;;;;;;76.00;72.00;;;;;20.24;31.27;99034.06;6163614;28;96591;-57
2022/09/07 01:06:57;;;;;;;;;46.50;40.33;;;;;20.37;31.23;99051.03;6164924;28;97143;-57
2022/09/07 01:10:01;;;;;;;;;45.33;38.83;;;;;20.30;31.56;99048.56;6163500;28;96857;-59
2022/09/07 01:13:05;;;;;;;;;52.17;44.50;;;;;20.30;31.35;99054.88;6164027;28;97049;-58
2022/09/07 01:16:16;;;;;;;;;52.00;44.20;;;;;20.18;31.32;99029.72;6162954;28;97476;-55
2022/09/07 01:19:59;;;;;;;;;42.20;36.80;;;;;20.26;31.14;99039.28;6164710;28;97006;-54
2022/09/07 01:23:37;;;;;;;;;44.83;38.50;;;;;20.21;31.68;99033.81;6151838;28;96828;-55
2022/09/07 01:27:10;;;;;;;;;43.50;37.50;;;;;20.27;31.61;99032.72;6152644;28;97386;-58
2022/09/07 01:30:18;;;;;;;;;42.25;37.00;;;;;20.28;31.23;99028.88;6154668;28;97411;-56
2022/09/07 01:33:37;;;;;;;;;34.67;32.67;;;;;20.12;31.36;99006.22;6163566;28;97435;-55
2022/09/07 01:36:49;;;;;;;;;46.20;39.40;;;;;20.23;31.59;99023.41;6163429;28;97361;-56
2022/09/07 01:40:02;;;;;;;;;69.17;60.50;;;;;20.17;31.25;99032.75;6163753;28;96995;-53
2022/09/07 01:43:13;;;;;;;;;55.33;46.50;;;;;20.06;31.12;99033.88;6164051;28;97223;-59
2022/09/07 01:46:23;;;;;;;;;47.60;40.60;;;;;20.04;31.39;99020.47;6163711;28;97135;-54
2022/09/07 01:49:35;;;;;;;;;49.71;42.57;;;;;20.07;31.66;99024.56;6162767;28;96636;-53
2022/09/07 01:52:44;;;;;;;;;45.17;39.17;;;;;20.06;31.88;99029.22;6162917;28;96720;-53
2022/09/07 01:55:52;;;;;;;;;54.40;46.00;;;;;20.01;31.76;99010.09;6163314;28;97512;-55
2022/09/07 01:58:59;;;;;;;;;53.50;44.83;;;;;19.89;31.64;98988.50;6163908;28;96478;-57
2022/09/07 02:02:09;;;;;;;;;42.50;37.17;;;;;19.94;31.53;99006.81;6163299;28;97378;-56
2022/09/07 02:05:18;;;;;;;;;46.25;39.25;;;;;19.93;32.03;99002.47;6163444;28;96619;-57
2022/09/07 02:08:28;;;;;;;;;43.60;37.80;;;;;19.88;31.55;99006.06;6163579;28;96993;-55
2022/09/07 02:11:37;;;;;;;;;63.33;52.17;;;;;19.86;31.78;99005.50;6162781;28;97086;-57
2022/09/07 02:14:44;;;;;;;;;47.20;40.60;;;;;19.80;32.22;99019.47;6163078;28;96495;-57
2022/09/07 02:18:02;;;;;;;;;49.50;42.50;;;;;19.83;31.97;99000.59;6163326;28;97139;-54
2022/09/07 02:21:10;;;;;;;;;41.20;36.60;;;;;19.84;32.13;98996.75;6162187;28;97084;-54
2022/09/07 02:24:20;;;;;;;;;47.00;40.50;;;;;19.80;32.35;98990.19;6160597;28;96958;-54
2022/09/07 02:27:29;;;;;;;;;42.20;37.20;;;;;19.79;32.31;98995.97;6162453;28;97178;-52
2022/09/07 02:30:32;;;;;;;;;46.67;39.67;;;;;19.76;32.71;98993.75;6163069;28;96802;-56
2022/09/07 02:33:37;;;;;;;;;63.50;52.50;;;;;19.72;32.58;99007.19;6161565;28;96731;-54
2022/09/07 02:36:48;;;;;;;;;66.83;56.17;;;;;19.71;32.36;99000.06;6162305;28;96891;-58
2022/09/07 02:39:51;;;;;;;;;51.80;44.20;;;;;19.67;32.71;98988.06;6161519;28;97858;-58
2022/09/07 02:42:56;;;;;;;;;50.33;42.83;;;;;19.61;32.57;98986.44;6161446;28;97029;-61
2022/09/07 02:46:23;;;;;;;;;43.40;37.00;;;;;19.64;32.68;98985.88;6162342;28;96775;-53
2022/09/07 02:49:54;;;;;;;;;49.00;42.00;;;;;19.69;32.63;98985.88;6161618;28;97411;-55
2022/09/07 02:53:15;;;;;;;;;66.67;56.83;;;;;19.70;32.65;98989.41;6162405;28;97494;-58
2022/09/07 02:56:35;;;;;;;;;54.33;45.83;;;;;19.66;32.76;98988.31;6161998;28;96985;-58
2022/09/07 02:59:52;;;;;;;;;48.80;42.00;;;;;19.66;33.21;98986.41;6154232;28;97388;-54
2022/09/07 03:03:08;;;;;;;;;45.33;39.00;;;;;19.70;33.23;98992.13;6158582;28;97245;-55
2022/09/07 03:06:21;;;;;;;;;49.00;41.80;;;;;19.72;33.13;98995.44;6162332;28;96622;-53
2022/09/07 03:09:29;;;;;;;;;42.00;36.33;;;;;19.74;32.99;99002.25;6162300;28;97259;-56
2022/09/07 03:12:40;;;;;;;;;50.29;43.00;;;;;19.72;32.99;99004.44;6161641;28;97427;-55
2022/09/07 03:15:44;;;;;;;;;37.40;33.60;;;;;19.71;33.05;99005.53;6161269;28;97662;-56
2022/09/07 03:18:47;;;;;;;;;35.83;33.17;;;;;19.64;32.81;99005.03;6161733;28;97526;-56
2022/09/07 03:21:52;;;;;;;;;38.00;34.50;;;;;19.50;33.04;98979.34;6162102;28;97657;-57
2022/09/07 03:24:56;;;;;;;;;37.40;34.20;;;;;19.61;32.76;98999.28;6162098;28;97480;-56
2022/09/07 03:27:59;;;;;;;;;39.40;35.00;;;;;19.60;32.86;99003.94;6162175;28;97752;-57
2022/09/07 03:31:02;;;;;;;;;33.20;31.80;;;;;19.55;32.49;99001.19;6160791;28;97193;-56
2022/09/07 03:34:06;;;;;;;;;36.00;33.33;;;;;19.50;32.63;98997.69;6161224;28;97631;-56
2022/09/07 03:37:11;;;;;;;;;46.00;39.50;;;;;19.41;32.86;99000.13;6161429;28;97918;-58
2022/09/07 03:40:16;;;;;;;;;38.20;34.60;;;;;19.33;33.00;98998.78;6158246;28;97417;-57
2022/09/07 03:43:19;;;;;;;;;48.00;41.50;;;;;19.29;33.07;98997.69;6161467;28;98842;-53
2022/09/07 03:46:22;;;;;;;;;53.83;45.83;;;;;19.20;32.97;98998.53;6157795;28;97457;-55
2022/09/07 03:49:26;;;;;;;;;47.67;40.50;;;;;19.20;33.13;98993.88;6158961;28;98577;-52
2022/09/07 03:52:30;;;;;;;;;40.67;36.00;;;;;19.20;33.08;98999.34;6156331;28;96818;-54
2022/09/07 03:55:34;;;;;;;;;49.00;41.67;;;;;19.16;33.11;98994.66;6158358;28;97649;-59
2022/09/07 03:58:37;;;;;;;;;34.00;32.50;;;;;19.07;33.54;98996.31;6158344;28;96985;-53
2022/09/07 04:01:41;;;;;;;;;48.60;41.40;;;;;19.05;33.64;99002.09;6158053;28;97281;-54
2022/09/07 04:04:45;;;;;;;;;43.40;37.60;;;;;19.04;33.61;99001.25;6159897;28;96828;-55
2022/09/07 04:07:51;;;;;;;;;52.60;44.60;;;;;19.02;33.61;98992.50;6159810;28;97472;-55
2022/09/07 04:10:56;;;;;;;;;51.60;43.80;;;;;18.96;33.94;98993.59;6158127;28;97515;-53
2022/09/07 04:13:59;;;;;;;;;46.50;40.17;;;;;18.79;33.95;98976.66;6160455;28;97110;-53
2022/09/07 04:17:02;;;;;;;;;51.00;43.50;;;;;18.92;34.18;98994.41;6159248;28;96976;-53
2022/09/07 04:20:07;;;;;;;;;46.40;40.00;;;;;18.92;34.09;98997.16;6158457;28;98007;-54
2022/09/07 04:23:12;;;;;;;;;45.20;39.40;;;;;18.89;34.31;99009.44;6158808;28;97355;-56
2022/09/07 04:26:19;;;;;;;;;44.75;38.75;;;;;18.87;34.54;99008.06;6159380;28;96770;-57
2022/09/07 04:29:22;;;;;;;;;48.50;41.00;;;;;18.86;34.54;99007.25;6160538;28;97476;-55
2022/09/07 04:32:26;;;;;;;;;54.00;45.50;;;;;18.86;34.35;99009.97;6157875;28;97245;-56
2022/09/07 04:35:29;;;;;;;;;55.67;46.00;;;;;18.88;34.44;99021.47;6147675;28;97529;-55
2022/09/07 04:38:34;;;;;;;;;45.80;39.20;;;;;18.87;34.26;99021.72;6158788;28;96970;-53
2022/09/07 04:41:37;;;;;;;;;43.50;37.33;;;;;18.92;34.27;99028.03;6158897;28;96958;-54
2022/09/07 04:44:41;;;;;;;;;40.67;36.33;;;;;18.95;34.28;99029.41;6159179;28;96750;-56
2022/09/07 04:47:47;;;;;;;;;47.50;41.00;;;;;18.92;33.88;99014.34;6158852;28;97154;-58
2022/09/07 04:50:51;;;;;;;;;56.00;47.00;;;;;19.07;34.16;99032.66;6161511;28;97115;-53
2022/09/07 04:53:58;;;;;;;;;57.33;48.00;;;;;19.09;34.11;99030.50;6159485;28;98198;-56
2022/09/07 04:57:01;;;;;;;;;49.00;42.00;;;;;19.14;34.08;99024.22;6160294;28;97013;-56
2022/09/07 05:00:08;;;;;;;;;47.20;39.20;;;;;19.23;34.08;99026.13;6162489;28;96668;-56
2022/09/07 05:03:11;;;;;;;;;49.60;41.60;;;;;19.31;34.03;99013.78;6160060;28;97235;-56
2022/09/07 05:06:15;;;;;;;;;44.40;38.00;;;;;19.30;33.53;99014.91;6160463;28;97409;-60
2022/09/07 05:09:20;;;;;;;;;45.80;39.80;;;;;19.30;33.62;99006.72;6159143;28;98095;-55
2022/09/07 05:12:23;;;;;;;;;45.60;39.00;;;;;19.38;33.84;99001.50;6162047;28;96956;-56
2022/09/07 05:15:28;;;;;;;;;37.33;34.33;;;;;19.49;33.86;99004.25;6159451;28;97436;-56
2022/09/07 05:18:32;;;;;;;;;50.20;43.20;;;;;19.53;33.40;99008.06;6158089;28;98067;-52
2022/09/07 05:21:36;;;;;;;;;42.60;37.00;;;;;19.57;33.28;99011.88;6160210;28;97580;-54
2022/09/07 05:24:41;;;;;;;;;60.50;50.00;;;;;19.51;33.21;99012.97;6156841;28;97479;-58
2022/09/07 05:27:45;;;;;;;;;45.50;39.50;;;;;19.58;33.65;99010.78;6159625;28;96961;-55
2022/09/07 05:30:48;;;;;;;;;36.00;33.40;;;;;19.70;33.68;99005.81;6163033;28;98173;-53
2022/09/07 05:34:12;;;;;;;;;56.17;47.33;;;;;19.80;33.15;99006.59;6163832;28;97654;-57
2022/09/07 05:37:34;;;;;;;;;55.80;46.00;;;;;19.83;32.88;99017.00;6163785;28;97488;-56
2022/09/07 05:40:39;;;;;;;;;47.00;40.00;;;;;19.93;33.07;99018.06;6163176;28;97445;-57
2022/09/07 05:43:44;;;;;;;;;48.00;41.00;;;;;19.98;32.79;99012.56;6164042;28;97562;-56
2022/09/07 05:47:07;;;;;;;;;46.00;39.80;;;;;20.09;32.90;99028.66;6163584;28;98172;-53
2022/09/07 05:50:10;;;;;;;;;58.83;48.67;;;;;20.22;33.20;99019.88;6163477;28;97439;-56
2022/09/07 05:53:14;;;;;;;;;49.00;42.00;;;;;20.26;32.64;99020.94;6163264;28;97348;-57
2022/09/07 05:56:19;;;;;;;;;33.80;32.00;;;;;20.41;32.81;99025.53;6163181;28;97197;-56
2022/09/07 05:59:22;;;;;;;;;49.83;42.17;;;;;20.49;32.44;99027.69;6162821;28;98089;-55
2022/09/07 06:02:37;;;;;;;;;55.17;46.00;;;;;20.66;32.73;99025.41;6163334;28;98118;-57
2022/09/07 06:05:42;;;;;;;;;71.50;62.50;;;;;20.84;32.43;99025.81;6158106;28;97350;-51
2022/09/07 06:08:47;;;;;;;;;52.00;43.75;;;;;20.87;31.98;99008.78;6158859;28;96909;-56
2022/09/07 06:11:52;;;;;;;;;49.17;41.17;;;;;21.02;31.96;99016.88;6157131;28;97239;-53
2022/09/07 06:14:55;;;;;;;;;50.60;43.00;;;;;21.12;31.92;99023.13;6162000;28;97099;-56
2022/09/07 06:17:59;;;;;;;;;41.80;36.40;;;;;21.21;31.68;99026.06;6159887;28;97436;-53
2022/09/07 06:21:03;;;;;;;;;45.80;39.40;;;;;21.29;31.86;99020.00;6160530;28;97407;-56
2022/09/07 06:24:07;;;;;;;;;53.00;44.00;;;;;21.45;32.17;99009.69;6158424;28;96848;-55
2022/09/07 06:27:12;;;;;;;;;44.80;39.00;;;;;21.61;31.67;99011.16;6162342;28;97402;-56
2022/09/07 06:30:15;;;;;;;;;52.00;43.83;;;;;21.79;31.06;99017.84;6162167;28;97466;-58
2022/09/07 06:33:18;;;;;;;;;55.50;46.67;;;;;21.90;31.09;99008.34;6162147;28;97364;-55
2022/09/07 06:36:26;;;;;;;;;29.33;28.83;;;;;22.01;31.52;98998.94;6162276;28;96990;-55
2022/09/07 06:39:30;;;;;;;;;45.00;38.67;;;;;22.24;30.81;99014.56;6161982;28;97474;-56
2022/09/07 06:42:35;;;;;;;;;50.60;43.40;;;;;22.40;30.74;99015.19;6162098;28;97483;-56
2022/09/07 06:45:38;;;;;;;;;40.00;35.00;;;;;22.58;30.32;99011.59;6160369;28;97171;-54
2022/09/07 06:48:42;;;;;;;;;55.14;46.57;;;;;22.74;30.27;99007.56;6160565;28;97439;-59
2022/09/07 06:51:46;;;;;;;;;44.33;38.33;;;;;22.86;30.50;99018.13;6161237;28;97457;-57
2022/09/07 06:54:49;;;;;;;;;49.60;42.40;;;;;23.01;29.92;99022.56;6160571;28;97209;-54
2022/09/07 06:58:01;;;;;;;;;29.20;28.20;;;;;23.13;30.13;99023.72;6161408;28;97192;-54
2022/09/07 07:01:06;;;;;;;;;47.83;40.50;;;;;23.30;29.78;99023.16;6162256;28;97192;-56
2022/09/07 07:04:09;;;;;;;;;49.40;42.00;;;;;23.48;29.63;99022.31;6165467;28;97341;-57
2022/09/07 07:07:14;;;;;;;;;47.00;40.00;;;;;23.69;29.75;99026.31;6162466;28;97523;-55
2022/09/07 07:10:17;;;;;;;;;49.17;42.17;;;;;23.88;29.69;99020.72;6161597;28;98137;-56
2022/09/07 07:13:28;;;;;;;;;45.00;39.00;;;;;23.88;29.22;98990.44;6162047;28;96736;-56
2022/09/07 07:16:35;;;;;;;;;46.80;40.20;;;;;24.08;28.90;99009.31;6162340;28;97382;-55
2022/09/07 07:19:39;;;;;;;;;39.00;34.60;;;;;24.09;28.80;98994.38;6161879;28;96654;-57
2022/09/07 07:22:42;;;;;;;;;44.60;38.20;;;;;24.38;29.30;99012.56;6161778;28;97581;-60
2022/09/07 07:25:49;;;;;;;;;31.67;30.33;;;;;24.47;28.86;99005.19;6161533;28;97127;-56
2022/09/07 07:28:55;;;;;;;;;34.40;31.60;;;;;24.58;28.68;99001.09;6163023;28;96786;-60
2022/09/07 07:32:02;;;;;;;;;42.40;37.40;;;;;24.75;29.16;99016.97;6162755;28;97312;-57
2022/09/07 07:35:07;;;;;;;;;35.50;33.00;;;;;24.94;29.01;99014.88;6161712;28;97584;-53
2022/09/07 07:38:11;;;;;;;;;63.60;52.20;;;;;24.99;28.65;99001.78;6161775;28;97012;-57
2022/09/07 07:41:34;;;;;;;;;31.80;30.00;;;;;25.32;28.11;99012.53;6161679;28;97012;-57
2022/09/07 07:44:59;;;;;;;;;35.00;32.00;;;;;25.53;28.43;99008.13;6163123;28;96545;-58
2022/09/07 07:48:22;;;;;;;;;41.00;36.20;;;;;25.68;27.81;99004.16;6161156;28;97418;-57
2022/09/07 07:51:30;;;;;;;;;57.17;48.17;;;;;25.74;27.85;98991.84;6161693;28;97597;-53
2022/09/07 07:54:54;;;;;;;;;45.00;39.00;;;;;26.06;27.75;99007.22;6162522;28;96876;-55
2022/09/07 07:57:57;;;;;;;;;41.40;36.00;;;;;26.25;27.72;99005.84;6160763;28;96357;-52
2022/09/07 08:01:04;;;;;;;;;28.80;28.20;;;;;26.38;27.36;98997.75;6160684;28;96931;-58
2022/09/07 08:04:07;;;;;;;;;50.40;43.20;;;;;26.53;27.25;99006.41;6158618;28;97422;-59
2022/09/07 08:07:11;;;;;;;;;34.60;32.00;;;;;26.70;27.40;99006.41;6161668;28;96997;-57
2022/09/07 08:10:15;;;;;;;;;48.00;41.00;;;;;26.89;26.89;99008.88;6161334;28;96974;-55
2022/09/07 08:13:20;;;;;;;;;20.25;20.00;;;;;27.07;26.94;99007.72;6155311;28;96844;-55
2022/09/07 08:16:25;;;;;;;;;35.75;33.00;;;;;27.14;26.78;99010.00;6161436;28;99590;-58
2022/09/07 08:19:28;;;;;;;;;33.33;31.67;;;;;27.33;26.75;99002.16;6161685;28;98932;-60
2022/09/07 08:22:31;;;;;;;;;45.00;38.50;;;;;27.53;26.71;99007.03;6162666;28;97274;-56
2022/09/07 08:25:37;;;;;;;;;26.50;25.50;;;;;27.66;26.36;99007.94;6167217;28;98520;-57
2022/09/07 08:28:44;;;;;;;;;36.00;33.00;;;;;27.82;26.55;99005.44;6164111;28;96755;-58
2022/09/07 08:31:49;;;;;;;;;46.40;39.40;;;;;28.10;26.48;99003.84;6164866;28;98107;-55
2022/09/07 08:34:52;;;;;;;;;29.60;28.00;;;;;28.21;25.78;99005.13;6165812;28;97080;-60
2022/09/07 08:37:55;;;;;;;;;48.40;40.40;;;;;28.32;25.47;99002.78;6165796;28;97259;-58
2022/09/07 08:41:00;;;;;;;;;39.60;35.20;;;;;28.36;25.19;98998.19;6165913;28;97412;-59
2022/09/07 08:44:05;;;;;;;;;28.00;27.80;;;;;28.40;25.39;98985.25;6163530;28;97018;-57
2022/09/07 08:47:27;;;;;;;;;37.20;33.60;;;;;28.48;25.66;98998.28;6163450;28;96802;-60
2022/09/07 08:50:37;;;;;;;;;37.00;34.00;;;;;28.60;25.14;98990.00;6161998;28;96675;-58
2022/09/07 08:53:45;;;;;;;;;27.20;26.00;;;;;28.81;25.46;98984.50;6163382;28;97000;-57
2022/09/07 08:56:52;;;;;;;;;36.40;32.60;;;;;29.05;25.29;98975.47;6162472;28;96633;-58
2022/09/07 09:00:17;;;;;;;;;39.50;35.00;;;;;29.30;25.36;98971.63;6162961;28;96720;-59
2022/09/07 09:03:27;;;;;;;;;34.80;32.00;;;;;29.53;25.29;98975.63;6161763;28;97274;-57
2022/09/07 09:06:47;;;;;;;;;36.75;33.50;;;;;29.63;25.19;98972.41;6162558;28;97527;-60
2022/09/07 09:10:20;;;;;;;;;24.00;23.00;;;;;29.83;24.85;98955.97;6161498;28;98436;-57
2022/09/07 09:13:33;;;;;;;;;42.20;36.00;;;;;30.07;24.87;98962.38;6163476;28;97481;-57
2022/09/07 09:16:43;;;;;;;;;23.00;22.00;;;;;30.34;24.40;98957.25;6162516;28;97548;-59
2022/09/07 09:20:00;;;;;;;;;40.75;35.75;;;;;30.59;24.57;98958.03;6163950;28;97580;-57
2022/09/07 09:23:12;;;;;;;;;39.00;34.80;;;;;30.77;23.93;98946.28;6164078;28;97462;-60
2022/09/07 09:26:22;;;;;;;;;31.80;29.80;;;;;30.99;23.73;98956.03;6164285;28;96842;-58
2022/09/07 09:29:25;;;;;;;;;28.50;28.00;;;;;31.26;23.56;98955.25;6168658;28;96824;-57
2022/09/07 09:32:34;;;;;;;;;31.40;30.20;;;;;31.45;23.41;98942.56;6163621;28;97315;-60
2022/09/07 09:35:40;;;;;;;;;27.20;27.00;;;;;31.73;22.43;98952.50;6160157;28;97134;-57
2022/09/07 09:38:43;;;;;;;;;32.00;29.75;;;;;31.81;22.45;98956.28;6163550;28;96747;-58
2022/09/07 09:41:47;;;;;;;;;31.80;30.80;;;;;31.96;22.55;98944.28;6163442;28;97579;-59
2022/09/07 09:44:51;;;;;;;;;28.75;28.00;;;;;32.12;22.50;98944.31;6164887;28;97150;-58
2022/09/07 09:47:54;;;;;;;;;19.40;18.80;;;;;32.32;22.07;98950.75;6163817;28;97941;-55
2022/09/07 09:51:01;;;;;;;;;21.60;20.60;;;;;32.23;22.09;98953.75;6163012;28;97569;-57
2022/09/07 09:54:31;;;;;;;;;31.75;30.00;;;;;32.18;22.13;98954.81;6164484;28;97059;-57
2022/09/07 09:57:50;;;;;;;;;24.00;23.60;;;;;32.12;22.58;98942.31;6162803;28;96936;-57
2022/09/07 10:01:22;;;;;;;;;26.00;25.00;;;;;32.45;22.35;98955.03;6163591;28;97401;-56
2022/09/07 10:04:32;;;;;;;;;32.80;31.80;;;;;32.58;21.59;98935.00;6161715;28;97337;-56
2022/09/07 10:07:37;;;;;;;;;16.20;15.20;;;;;32.57;21.87;98932.56;6161130;28;98390;-60
2022/09/07 10:10:50;;;;;;;;;31.40;30.00;;;;;32.55;21.88;98913.38;6160879;28;98154;-56
2022/09/07 10:13:56;;;;;;;;;23.50;22.75;;;;;32.75;21.98;98930.16;6162808;28;97402;-59
2022/09/07 10:17:01;;;;;;;;;27.50;27.00;;;;;32.76;21.87;98929.00;6161163;28;97585;-57
2022/09/07 10:20:30;;;;;;;;;29.40;28.40;;;;;32.92;21.97;98932.53;6162733;28;97630;-56
2022/09/07 10:23:35;;;;;;;;;27.00;25.50;;;;;32.95;21.43;98935.38;6157817;28;97489;-61
2022/09/07 10:26:40;;;;;;;;;21.50;20.50;;;;;32.96;21.67;98937.00;6162959;28;98800;-58
2022/09/07 10:29:44;;;;;;;;;19.00;18.00;;;;;33.12;21.38;98934.13;6163254;28;97086;-61
2022/09/07 10:32:59;;;;;;;;;30.00;29.50;;;;;33.34;21.71;98922.19;6163718;28;97487;-58
2022/09/07 10:36:10;;;;;;;;;27.00;26.00;;;;;33.57;21.98;98921.38;6161988;28;97515;-60
2022/09/07 10:39:21;;;;;;;;;24.00;24.00;;;;;33.80;21.95;98919.41;6162030;28;98067;-59
2022/09/07 10:42:29;;;;;;;;;23.80;22.60;;;;;34.03;21.21;98931.34;6163507;28;97404;-57
2022/09/07 10:45:48;;;;;;;;;26.00;25.00;;;;;34.02;20.92;98915.75;6163157;28;96740;-58
2022/09/07 10:49:05;;;;;;;;;21.60;20.60;;;;;34.22;21.19;98919.25;6161733;28;97990;-59
2022/09/07 10:52:15;;;;;;;;;20.40;19.40;;;;;34.48;20.67;98915.63;6161830;28;96776;-59
2022/09/07 10:55:27;;;;;;;;;19.80;18.80;;;;;34.56;20.40;98912.53;6162625;28;96635;-58
2022/09/07 10:58:46;;;;;;;;;17.40;17.00;;;;;34.67;20.84;98912.69;6159382;28;97194;-59
2022/09/07 11:02:16;;;;;;;;;25.60;25.60;;;;;34.95;21.14;98913.03;6161865;28;98264;-59
2022/09/07 11:05:30;;;;;;;;;18.50;18.50;;;;;35.13;20.96;98908.47;6154478;28;97373;-57
2022/09/07 11:09:03;;;;;;;;;19.60;19.60;;;;;35.34;19.49;98918.28;6174557;28;98533;-57
2022/09/07 11:12:29;;;;;;;;;19.00;18.00;;;;;35.48;20.11;98915.63;6162294;28;97619;-60
2022/09/07 11:15:36;;;;;;;;;17.00;17.00;;;;;35.52;19.69;98903.25;6161896;28;97485;-56
2022/09/07 11:18:44;;;;;;;;;15.60;14.60;;;;;35.60;20.33;98901.31;6161621;28;97614;-58
2022/09/07 11:21:58;;;;;;;;;14.80;14.40;;;;;35.72;19.52;98897.44;6161644;28;97305;-57
2022/09/07 11:25:13;;;;;;;;;15.00;14.00;;;;;35.82;19.58;98900.31;6159051;28;97395;-57
2022/09/07 11:28:43;;;;;;;;;17.00;16.60;;;;;35.93;19.84;98904.00;6163277;28;98544;-60
2022/09/07 11:31:51;;;;;;;;;15.00;15.00;;;;;35.96;19.82;98894.81;6162112;28;96504;-58
2022/09/07 11:35:01;;;;;;;;;22.20;22.20;;;;;36.07;19.71;98900.47;6161775;28;97215;-61
2022/09/07 11:38:13;;;;;;;;;16.00;16.00;;;;;36.20;19.34;98898.19;6163005;28;96682;-54
2022/09/07 11:41:27;;;;;;;;;17.60;17.20;;;;;36.28;19.47;98897.03;6159534;28;97434;-57
2022/09/07 11:44:46;;;;;;;;;20.40;18.40;;;;;36.03;19.70;98888.44;6157174;28;97489;-58
2022/09/07 11:47:58;;;;;;;;;17.40;17.40;;;;;35.95;19.66;98887.59;6160514;28;96911;-58
2022/09/07 11:51:06;;;;;;;;;16.75;16.00;;;;;35.82;19.65;98893.91;6162917;28;97174;-58
2022/09/07 11:54:23;;;;;;;;;16.20;16.20;;;;;35.60;19.86;98862.84;6158977;28;98104;-57
2022/09/07 11:57:43;;;;;;;;;18.33;17.33;;;;;35.89;19.89;98877.91;6162914;28;96873;-59
2022/09/07 12:01:05;;;;;;;;;13.00;13.00;;;;;36.01;19.26;98879.59;6165391;28;96820;-60
2022/09/07 12:04:28;;;;;;;;;15.75;15.25;;;;;36.16;19.58;98874.91;6162718;28;96747;-58
2022/09/07 12:07:50;;;;;;;;;21.00;21.00;;;;;36.25;19.03;98873.38;6159515;28;99604;-56
2022/09/07 12:11:24;;;;;;;;;17.50;15.50;;;;;36.36;19.38;98865.78;6162129;28;96680;-57
2022/09/07 12:14:39;;;;;;;;;21.40;21.40;;;;;36.39;19.16;98864.19;6163210;28;96870;-60
2022/09/07 12:18:00;;;;;;;;;16.50;15.75;;;;;36.39;19.44;98862.19;6161826;28;97652;-54
2022/09/07 12:21:04;;;;;;;;;19.00;17.00;;;;;36.43;19.73;98857.41;6162119;28;97606;-60
2022/09/07 12:24:42;;;;;;;;;18.60;18.00;;;;;36.47;19.37;98851.78;6163322;28;97254;-59
2022/09/07 12:27:45;;;;;;;;;17.40;17.00;;;;;36.44;19.74;98853.41;6158699;28;97721;-57
2022/09/07 12:30:56;;;;;;;;;18.60;17.60;;;;;36.50;19.39;98853.03;6164336;28;97076;-58
2022/09/07 12:34:33;;;;;;;;;21.40;19.00;;;;;36.40;19.13;98846.16;6163436;28;97448;-61
2022/09/07 12:37:42;;;;;;;;;21.00;21.00;;;;;36.30;19.03;98855.34;6166006;28;96636;-55
2022/09/07 12:40:58;;;;;;;;;17.50;17.50;;;;;36.18;19.31;98845.25;6165910;28;97473;-55
2022/09/07 12:44:07;;;;;;;;;18.00;18.00;;;;;36.17;19.92;98842.81;6164489;28;97235;-56
2022/09/07 12:47:29;;;;;;;;;18.50;18.50;;;;;36.23;19.72;98841.25;6163428;28;97030;-57
2022/09/07 12:50:35;;;;;;;;;18.00;17.33;;;;;36.21;19.45;98840.88;6151891;28;97278;-56
2022/09/07 12:53:53;;;;;;;;;18.00;18.00;;;;;36.20;20.07;98836.44;6163608;28;96999;-58
2022/09/07 12:57:15;;;;;;;;;19.00;19.00;;;;;35.97;20.29;98815.03;6163098;28;97001;-55
2022/09/07 13:00:47;;;;;;;;;19.00;18.00;;;;;36.16;19.57;98838.44;6151256;28;97559;-58
2022/09/07 13:04:18;;;;;;;;;21.00;21.00;;;;;36.22;19.61;98840.44;6162559;28;97707;-55
2022/09/07 13:07:47;;;;;;;;;18.00;18.00;;;;;36.05;19.38;98832.72;6149799;28;97426;-58
2022/09/07 13:10:52;;;;;;;;;19.40;19.40;;;;;35.86;19.79;98818.97;6152645;28;97585;-58
2022/09/07 13:13:59;;;;;;;;;18.00;18.00;;;;;35.81;20.01;98816.56;6164393;28;97856;-59
2022/09/07 13:17:41;;;;;;;;;20.33;19.33;;;;;35.82;20.12;98812.56;6161791;28;96810;-56
2022/09/07 13:20:45;;;;;;;;;19.80;19.20;;;;;35.79;20.15;98805.72;6158039;28;97549;-57
2022/09/07 13:24:42;;;;;;;;;15.80;15.80;;;;;35.72;20.78;98811.28;6164155;28;97050;-56
2022/09/07 13:27:55;;;;;;;;;19.40;19.00;;;;;35.63;20.19;98807.97;6152153;28;97287;-57
2022/09/07 13:31:16;;;;;;;;;22.00;22.00;;;;;35.39;19.95;98809.41;6163471;28;96777;-56
2022/09/07 13:34:45;;;;;;;;;21.40;21.40;;;;;35.22;20.90;98801.66;6162811;28;97476;-57
2022/09/07 13:37:54;;;;;;;;;17.40;17.00;;;;;34.93;20.68;98777.34;6163369;28;97611;-58
2022/09/07 13:41:05;;;;;;;;;23.20;22.20;;;;;34.69;20.52;98799.13;6159832;28;97999;-55
2022/09/07 13:44:19;;;;;;;;;20.00;20.00;;;;;34.32;20.83;98782.28;6162709;28;97476;-59
2022/09/07 13:47:52;;;;;;;;;23.00;22.00;;;;;34.22;21.77;98791.34;6159777;28;97222;-55
2022/09/07 13:51:02;;;;;;;;;20.75;20.50;;;;;34.18;21.46;98787.72;6162123;28;96710;-54
2022/09/07 13:54:14;;;;;;;;;21.00;20.40;;;;;34.17;21.73;98780.47;6161537;28;97235;-60
2022/09/07 13:57:26;;;;;;;;;24.00;23.25;;;;;34.09;21.36;98789.16;6159442;28;98389;-64
2022/09/07 14:00:31;;;;;;;;;21.00;21.00;;;;;33.97;21.65;98781.00;6161039;28;97732;-58
2022/09/07 14:03:44;;;;;;;;;11.00;10.20;;;;;33.77;21.45;98775.53;6161647;28;97125;-59
2022/09/07 14:06:47;;;;;;;;;35.40;33.00;;;;;33.51;21.83;98783.91;6160604;28;97394;-58
2022/09/07 14:10:05;;;;;;;;;14.60;14.60;;;;;33.34;22.39;98790.03;6160123;28;97529;-56
2022/09/07 14:13:12;;;;;;;;;24.40;23.60;;;;;33.32;22.95;98778.44;6161093;28;97570;-53
2022/09/07 14:16:17;;;;;;;;;29.80;29.80;;;;;33.35;22.58;98777.69;6161461;28;97500;-55
2022/09/07 14:19:24;;;;;;;;;30.50;29.75;;;;;33.34;22.34;98773.25;6160021;28;97416;-57
2022/09/07 14:22:32;;;;;;;;;28.75;27.75;;;;;33.35;21.93;98780.47;6161236;28;97692;-53
2022/09/07 14:25:36;;;;;;;;;29.00;28.40;;;;;33.22;21.75;98779.88;6161208;28;97377;-56
2022/09/07 14:29:00;;;;;;;;;20.60;20.60;;;;;33.20;22.75;98771.06;6158088;28;98608;-56
2022/09/07 14:32:13;;;;;;;;;25.00;25.00;;;;;33.24;22.79;98765.50;6161591;28;96786;-54
2022/09/07 14:35:18;;;;;;;;;28.60;28.60;;;;;33.22;22.33;98765.09;6158590;28;96999;-57